Verona, California
Current Conditions -  °F | °C
As of 9:53 AM on Friday 21 Nov 2014 (Local Time) from KSMF Reporting Station
Haze Haze  
Wind Chill: 52°   Ceiling: 500
Heat Index: 52°   Visibility: 4mi
Dew Point: 49°   Wind: 5mph
Humidity: 89%   Direction: 20°NNE
Pressure: 30.12"   Gusts: NA
Location:  38.8689°N, 121.569°W
Report Text: KSMF 211753Z 02004KT 4SM BR OVC005 11/09 A3012 RMK AO2 SLP198 T01110094 10111 20094 51014
Loading
Personal Weather Stations






























Interactive Weather Map New forecast layout! Learn more

10-Day Weather Forecast

Advertisements
Track Severe Weather on mobile